sensor_id;sensor_type;location;lat;lon;timestamp;P1;durP1;ratioP1;P2;durP2;ratioP2
63379;SDS011;53160;55.014;73.156;2022-11-09T00:01:05;5.60;;;5.60;;
63379;SDS011;53160;55.014;73.156;2022-11-09T00:03:31;4.00;;;3.60;;
63379;SDS011;53160;55.014;73.156;2022-11-09T00:05:59;9.20;;;7.20;;
63379;SDS011;53160;55.014;73.156;2022-11-09T00:08:25;4.40;;;4.00;;
63379;SDS011;53160;55.014;73.156;2022-11-09T00:10:52;5.60;;;5.60;;
63379;SDS011;53160;55.014;73.156;2022-11-09T00:13:18;2.80;;;2.00;;
63379;SDS011;53160;55.014;73.156;2022-11-09T00:15:57;4.00;;;4.00;;
63379;SDS011;53160;55.014;73.156;2022-11-09T00:18:33;6.80;;;6.20;;
63379;SDS011;53160;55.014;73.156;2022-11-09T00:21:06;5.00;;;4.00;;
63379;SDS011;53160;55.014;73.156;2022-11-09T00:23:33;4.80;;;4.80;;
63379;SDS011;53160;55.014;73.156;2022-11-09T00:26:10;1.20;;;1.20;;
63379;SDS011;53160;55.014;73.156;2022-11-09T00:28:36;4.40;;;4.20;;
63379;SDS011;53160;55.014;73.156;2022-11-09T00:31:16;6.40;;;5.20;;
63379;SDS011;53160;55.014;73.156;2022-11-09T00:33:49;6.60;;;5.00;;
63379;SDS011;53160;55.014;73.156;2022-11-09T00:36:16;3.60;;;3.20;;
63379;SDS011;53160;55.014;73.156;2022-11-09T00:38:46;7.80;;;6.00;;
63379;SDS011;53160;55.014;73.156;2022-11-09T00:41:12;6.60;;;6.20;;
63379;SDS011;53160;55.014;73.156;2022-11-09T00:43:38;8.20;;;6.40;;
63379;SDS011;53160;55.014;73.156;2022-11-09T00:46:06;5.00;;;5.00;;
63379;SDS011;53160;55.014;73.156;2022-11-09T00:48:32;2.00;;;1.00;;
63379;SDS011;53160;55.014;73.156;2022-11-09T00:51:00;6.40;;;6.40;;
63379;SDS011;53160;55.014;73.156;2022-11-09T00:53:28;8.00;;;6.20;;
63379;SDS011;53160;55.014;73.156;2022-11-09T00:56:05;5.20;;;5.00;;
63379;SDS011;53160;55.014;73.156;2022-11-09T00:58:34;8.20;;;7.60;;
63379;SDS011;53160;55.014;73.156;2022-11-09T01:01:05;8.40;;;7.60;;
63379;SDS011;53160;55.014;73.156;2022-11-09T01:03:32;6.80;;;5.60;;
63379;SDS011;53160;55.014;73.156;2022-11-09T01:06:00;6.60;;;6.40;;
63379;SDS011;53160;55.014;73.156;2022-11-09T01:08:26;8.20;;;8.20;;
63379;SDS011;53160;55.014;73.156;2022-11-09T01:10:52;7.80;;;7.80;;
63379;SDS011;53160;55.014;73.156;2022-11-09T01:13:21;2.00;;;2.00;;
63379;SDS011;53160;55.014;73.156;2022-11-09T01:15:49;6.00;;;5.40;;
63379;SDS011;53160;55.014;73.156;2022-11-09T01:18:15;7.80;;;6.80;;
63379;SDS011;53160;55.014;73.156;2022-11-09T01:20:43;9.40;;;7.00;;
63379;SDS011;53160;55.014;73.156;2022-11-09T01:23:09;8.40;;;7.60;;
63379;SDS011;53160;55.014;73.156;2022-11-09T01:25:36;8.20;;;8.20;;
63379;SDS011;53160;55.014;73.156;2022-11-09T01:28:02;9.00;;;9.00;;
63379;SDS011;53160;55.014;73.156;2022-11-09T01:30:29;11.40;;;10.00;;
63379;SDS011;53160;55.014;73.156;2022-11-09T01:32:58;7.80;;;6.60;;
63379;SDS011;53160;55.014;73.156;2022-11-09T01:35:31;6.00;;;5.20;;
63379;SDS011;53160;55.014;73.156;2022-11-09T01:37:58;7.20;;;7.20;;
63379;SDS011;53160;55.014;73.156;2022-11-09T01:40:25;9.00;;;8.00;;
63379;SDS011;53160;55.014;73.156;2022-11-09T01:42:51;6.80;;;6.40;;
63379;SDS011;53160;55.014;73.156;2022-11-09T01:48:56;11.60;;;10.20;;
63379;SDS011;53160;55.014;73.156;2022-11-09T01:50:57;8.40;;;8.00;;
63379;SDS011;53160;55.014;73.156;2022-11-09T01:53:29;8.60;;;8.20;;
63379;SDS011;53160;55.014;73.156;2022-11-09T01:55:56;10.40;;;9.20;;
63379;SDS011;53160;55.014;73.156;2022-11-09T01:58:24;7.40;;;7.40;;
63379;SDS011;53160;55.014;73.156;2022-11-09T02:00:53;6.40;;;6.20;;
63379;SDS011;53160;55.014;73.156;2022-11-09T02:03:33;7.20;;;4.80;;
63379;SDS011;53160;55.014;73.156;2022-11-09T02:06:01;8.20;;;6.40;;
63379;SDS011;53160;55.014;73.156;2022-11-09T02:08:28;6.20;;;6.20;;
63379;SDS011;53160;55.014;73.156;2022-11-09T02:11:08;10.20;;;9.00;;
63379;SDS011;53160;55.014;73.156;2022-11-09T02:13:40;7.20;;;7.00;;
63379;SDS011;53160;55.014;73.156;2022-11-09T02:16:08;8.20;;;7.40;;
63379;SDS011;53160;55.014;73.156;2022-11-09T02:18:37;7.20;;;6.40;;
63379;SDS011;53160;55.014;73.156;2022-11-09T02:21:04;7.20;;;7.20;;
63379;SDS011;53160;55.014;73.156;2022-11-09T02:23:30;9.60;;;7.20;;
63379;SDS011;53160;55.014;73.156;2022-11-09T02:26:06;5.60;;;5.60;;
63379;SDS011;53160;55.014;73.156;2022-11-09T02:28:36;9.00;;;7.40;;
63379;SDS011;53160;55.014;73.156;2022-11-09T02:31:03;9.20;;;7.80;;
63379;SDS011;53160;55.014;73.156;2022-11-09T02:33:42;12.60;;;11.40;;
63379;SDS011;53160;55.014;73.156;2022-11-09T02:36:08;10.40;;;10.40;;
63379;SDS011;53160;55.014;73.156;2022-11-09T02:38:35;8.40;;;6.20;;
63379;SDS011;53160;55.014;73.156;2022-11-09T02:41:01;9.00;;;8.80;;
63379;SDS011;53160;55.014;73.156;2022-11-09T02:43:27;9.00;;;8.40;;
63379;SDS011;53160;55.014;73.156;2022-11-09T02:45:54;9.00;;;8.40;;
63379;SDS011;53160;55.014;73.156;2022-11-09T02:48:20;8.00;;;7.00;;
63379;SDS011;53160;55.014;73.156;2022-11-09T02:50:46;7.60;;;6.80;;
63379;SDS011;53160;55.014;73.156;2022-11-09T02:53:12;11.60;;;11.60;;
63379;SDS011;53160;55.014;73.156;2022-11-09T02:55:47;8.20;;;5.80;;
63379;SDS011;53160;55.014;73.156;2022-11-09T02:58:13;7.20;;;5.20;;
63379;SDS011;53160;55.014;73.156;2022-11-09T03:00:40;5.80;;;5.60;;
63379;SDS011;53160;55.014;73.156;2022-11-09T03:03:11;7.20;;;5.60;;
63379;SDS011;53160;55.014;73.156;2022-11-09T03:05:37;10.40;;;9.80;;
63379;SDS011;53160;55.014;73.156;2022-11-09T03:08:04;7.20;;;6.60;;
63379;SDS011;53160;55.014;73.156;2022-11-09T03:10:34;8.20;;;8.20;;
63379;SDS011;53160;55.014;73.156;2022-11-09T03:13:00;8.80;;;7.40;;
63379;SDS011;53160;55.014;73.156;2022-11-09T03:15:27;5.60;;;5.20;;
63379;SDS011;53160;55.014;73.156;2022-11-09T03:17:53;8.00;;;6.00;;
63379;SDS011;53160;55.014;73.156;2022-11-09T03:20:20;8.00;;;6.00;;
63379;SDS011;53160;55.014;73.156;2022-11-09T03:22:47;8.00;;;8.00;;
63379;SDS011;53160;55.014;73.156;2022-11-09T03:25:13;8.00;;;7.60;;
63379;SDS011;53160;55.014;73.156;2022-11-09T03:27:40;6.40;;;6.40;;
63379;SDS011;53160;55.014;73.156;2022-11-09T03:30:07;8.00;;;6.00;;
63379;SDS011;53160;55.014;73.156;2022-11-09T03:32:38;4.00;;;4.00;;
63379;SDS011;53160;55.014;73.156;2022-11-09T03:35:15;6.00;;;5.80;;
63379;SDS011;53160;55.014;73.156;2022-11-09T03:37:42;5.60;;;5.60;;
63379;SDS011;53160;55.014;73.156;2022-11-09T03:40:08;6.00;;;6.00;;
63379;SDS011;53160;55.014;73.156;2022-11-09T03:42:46;9.00;;;8.80;;
63379;SDS011;53160;55.014;73.156;2022-11-09T03:45:13;8.00;;;5.80;;
63379;SDS011;53160;55.014;73.156;2022-11-09T03:47:40;6.20;;;6.20;;
63379;SDS011;53160;55.014;73.156;2022-11-09T03:50:10;1.60;;;1.60;;
63379;SDS011;53160;55.014;73.156;2022-11-09T03:52:37;5.80;;;5.20;;
63379;SDS011;53160;55.014;73.156;2022-11-09T03:55:08;2.00;;;1.60;;
63379;SDS011;53160;55.014;73.156;2022-11-09T03:57:34;8.40;;;5.40;;
63379;SDS011;53160;55.014;73.156;2022-11-09T04:00:00;9.20;;;8.20;;
63379;SDS011;53160;55.014;73.156;2022-11-09T04:02:27;6.00;;;6.00;;
63379;SDS011;53160;55.014;73.156;2022-11-09T04:04:57;6.00;;;5.20;;
63379;SDS011;53160;55.014;73.156;2022-11-09T04:07:24;6.20;;;6.00;;
63379;SDS011;53160;55.014;73.156;2022-11-09T04:10:00;4.80;;;4.80;;
63379;SDS011;53160;55.014;73.156;2022-11-09T04:12:36;12.60;;;7.20;;
63379;SDS011;53160;55.014;73.156;2022-11-09T04:15:05;11.20;;;9.80;;
63379;SDS011;53160;55.014;73.156;2022-11-09T04:17:35;5.80;;;5.80;;
63379;SDS011;53160;55.014;73.156;2022-11-09T04:20:02;8.80;;;8.80;;
63379;SDS011;53160;55.014;73.156;2022-11-09T04:22:28;5.80;;;5.80;;
63379;SDS011;53160;55.014;73.156;2022-11-09T04:24:59;3.80;;;3.80;;
63379;SDS011;53160;55.014;73.156;2022-11-09T04:27:25;6.60;;;6.60;;
63379;SDS011;53160;55.014;73.156;2022-11-09T04:29:51;7.00;;;7.00;;
63379;SDS011;53160;55.014;73.156;2022-11-09T04:32:27;7.20;;;6.60;;
63379;SDS011;53160;55.014;73.156;2022-11-09T04:34:54;4.20;;;3.40;;
63379;SDS011;53160;55.014;73.156;2022-11-09T04:37:20;7.20;;;7.20;;
63379;SDS011;53160;55.014;73.156;2022-11-09T04:39:56;11.00;;;7.40;;
63379;SDS011;53160;55.014;73.156;2022-11-09T04:42:32;6.40;;;6.40;;
63379;SDS011;53160;55.014;73.156;2022-11-09T04:45:05;5.60;;;5.60;;
63379;SDS011;53160;55.014;73.156;2022-11-09T04:47:32;11.80;;;10.60;;
63379;SDS011;53160;55.014;73.156;2022-11-09T04:50:02;6.80;;;6.00;;
63379;SDS011;53160;55.014;73.156;2022-11-09T04:52:29;5.80;;;5.80;;
63379;SDS011;53160;55.014;73.156;2022-11-09T04:54:55;9.20;;;7.80;;
63379;SDS011;53160;55.014;73.156;2022-11-09T04:57:21;8.40;;;7.80;;
63379;SDS011;53160;55.014;73.156;2022-11-09T04:59:47;6.60;;;4.40;;
63379;SDS011;53160;55.014;73.156;2022-11-09T05:02:13;9.20;;;7.80;;
63379;SDS011;53160;55.014;73.156;2022-11-09T05:04:39;6.60;;;6.00;;
63379;SDS011;53160;55.014;73.156;2022-11-09T05:07:12;10.00;;;9.00;;
63379;SDS011;53160;55.014;73.156;2022-11-09T05:09:38;1.00;;;1.00;;
63379;SDS011;53160;55.014;73.156;2022-11-09T05:12:14;6.60;;;6.60;;
63379;SDS011;53160;55.014;73.156;2022-11-09T05:14:40;5.80;;;5.80;;
63379;SDS011;53160;55.014;73.156;2022-11-09T05:17:06;9.00;;;7.80;;
63379;SDS011;53160;55.014;73.156;2022-11-09T05:19:44;9.20;;;8.80;;
63379;SDS011;53160;55.014;73.156;2022-11-09T05:22:10;9.00;;;7.00;;
63379;SDS011;53160;55.014;73.156;2022-11-09T05:24:55;6.80;;;6.80;;
63379;SDS011;53160;55.014;73.156;2022-11-09T05:27:21;8.60;;;8.60;;
63379;SDS011;53160;55.014;73.156;2022-11-09T05:29:47;8.20;;;7.80;;
63379;SDS011;53160;55.014;73.156;2022-11-09T05:32:13;9.20;;;7.40;;
63379;SDS011;53160;55.014;73.156;2022-11-09T05:34:39;10.60;;;8.20;;
63379;SDS011;53160;55.014;73.156;2022-11-09T05:37:05;8.80;;;8.80;;
63379;SDS011;53160;55.014;73.156;2022-11-09T05:39:36;7.80;;;6.80;;
63379;SDS011;53160;55.014;73.156;2022-11-09T05:42:02;9.60;;;9.20;;
63379;SDS011;53160;55.014;73.156;2022-11-09T05:44:28;9.20;;;8.40;;
63379;SDS011;53160;55.014;73.156;2022-11-09T05:47:05;11.20;;;10.80;;
63379;SDS011;53160;55.014;73.156;2022-11-09T05:49:31;11.20;;;10.80;;
63379;SDS011;53160;55.014;73.156;2022-11-09T05:51:57;12.40;;;11.20;;
63379;SDS011;53160;55.014;73.156;2022-11-09T05:54:33;10.20;;;9.60;;
63379;SDS011;53160;55.014;73.156;2022-11-09T05:56:59;14.60;;;10.80;;
63379;SDS011;53160;55.014;73.156;2022-11-09T05:59:35;11.20;;;9.40;;
63379;SDS011;53160;55.014;73.156;2022-11-09T06:02:01;10.00;;;10.00;;
63379;SDS011;53160;55.014;73.156;2022-11-09T06:04:28;8.60;;;7.80;;
63379;SDS011;53160;55.014;73.156;2022-11-09T06:06:54;15.60;;;14.60;;
63379;SDS011;53160;55.014;73.156;2022-11-09T06:09:20;11.80;;;9.60;;
63379;SDS011;53160;55.014;73.156;2022-11-09T06:11:46;9.80;;;9.40;;
63379;SDS011;53160;55.014;73.156;2022-11-09T06:14:12;14.20;;;12.60;;
63379;SDS011;53160;55.014;73.156;2022-11-09T06:16:38;14.00;;;12.60;;
63379;SDS011;53160;55.014;73.156;2022-11-09T06:19:04;15.80;;;14.00;;
63379;SDS011;53160;55.014;73.156;2022-11-09T06:21:30;13.00;;;12.20;;
63379;SDS011;53160;55.014;73.156;2022-11-09T06:23:57;14.00;;;11.60;;
63379;SDS011;53160;55.014;73.156;2022-11-09T06:26:23;7.20;;;6.80;;
63379;SDS011;53160;55.014;73.156;2022-11-09T06:28:49;16.00;;;14.80;;
63379;SDS011;53160;55.014;73.156;2022-11-09T06:31:15;12.40;;;12.40;;
63379;SDS011;53160;55.014;73.156;2022-11-09T06:33:47;15.20;;;14.80;;
63379;SDS011;53160;55.014;73.156;2022-11-09T06:36:13;12.40;;;11.40;;
63379;SDS011;53160;55.014;73.156;2022-11-09T06:38:47;11.40;;;11.40;;
63379;SDS011;53160;55.014;73.156;2022-11-09T06:41:13;10.75;;;9.00;;
63379;SDS011;53160;55.014;73.156;2022-11-09T06:43:39;16.00;;;15.00;;
63379;SDS011;53160;55.014;73.156;2022-11-09T06:46:06;11.00;;;11.00;;
63379;SDS011;53160;55.014;73.156;2022-11-09T06:48:32;11.80;;;10.60;;
63379;SDS011;53160;55.014;73.156;2022-11-09T06:50:59;13.20;;;11.40;;
63379;SDS011;53160;55.014;73.156;2022-11-09T06:53:35;9.60;;;9.00;;
63379;SDS011;53160;55.014;73.156;2022-11-09T06:56:03;14.00;;;12.40;;
63379;SDS011;53160;55.014;73.156;2022-11-09T06:58:30;16.00;;;14.80;;
63379;SDS011;53160;55.014;73.156;2022-11-09T07:00:56;11.00;;;10.40;;
63379;SDS011;53160;55.014;73.156;2022-11-09T07:03:23;10.80;;;10.00;;
63379;SDS011;53160;55.014;73.156;2022-11-09T07:05:50;8.50;;;8.50;;
63379;SDS011;53160;55.014;73.156;2022-11-09T07:08:17;10.40;;;10.20;;
63379;SDS011;53160;55.014;73.156;2022-11-09T07:10:44;10.20;;;9.40;;
63379;SDS011;53160;55.014;73.156;2022-11-09T07:13:10;11.00;;;10.40;;
63379;SDS011;53160;55.014;73.156;2022-11-09T07:15:37;13.00;;;12.20;;
63379;SDS011;53160;55.014;73.156;2022-11-09T07:18:04;11.80;;;11.00;;
63379;SDS011;53160;55.014;73.156;2022-11-09T07:20:30;13.20;;;11.80;;
63379;SDS011;53160;55.014;73.156;2022-11-09T07:22:57;11.20;;;10.40;;
63379;SDS011;53160;55.014;73.156;2022-11-09T07:25:23;10.80;;;10.40;;
63379;SDS011;53160;55.014;73.156;2022-11-09T07:27:51;10.25;;;9.25;;
63379;SDS011;53160;55.014;73.156;2022-11-09T07:30:18;11.25;;;9.75;;
63379;SDS011;53160;55.014;73.156;2022-11-09T07:32:44;7.00;;;6.75;;
63379;SDS011;53160;55.014;73.156;2022-11-09T07:35:10;9.00;;;9.00;;
63379;SDS011;53160;55.014;73.156;2022-11-09T07:37:36;7.00;;;6.25;;
63379;SDS011;53160;55.014;73.156;2022-11-09T07:40:05;10.50;;;9.75;;
63379;SDS011;53160;55.014;73.156;2022-11-09T07:42:31;9.25;;;7.50;;
63379;SDS011;53160;55.014;73.156;2022-11-09T07:44:57;10.25;;;10.25;;
63379;SDS011;53160;55.014;73.156;2022-11-09T07:47:23;11.20;;;10.20;;
63379;SDS011;53160;55.014;73.156;2022-11-09T07:49:49;9.00;;;7.00;;
63379;SDS011;53160;55.014;73.156;2022-11-09T07:52:15;11.50;;;9.00;;
63379;SDS011;53160;55.014;73.156;2022-11-09T07:54:49;10.50;;;8.75;;
63379;SDS011;53160;55.014;73.156;2022-11-09T07:57:15;9.00;;;8.00;;
63379;SDS011;53160;55.014;73.156;2022-11-09T07:59:41;10.00;;;10.00;;
63379;SDS011;53160;55.014;73.156;2022-11-09T08:02:08;9.75;;;9.00;;
63379;SDS011;53160;55.014;73.156;2022-11-09T08:04:34;10.75;;;9.75;;
63379;SDS011;53160;55.014;73.156;2022-11-09T08:07:00;11.25;;;10.50;;
63379;SDS011;53160;55.014;73.156;2022-11-09T08:09:27;11.60;;;10.80;;
63379;SDS011;53160;55.014;73.156;2022-11-09T08:11:57;9.00;;;9.00;;
63379;SDS011;53160;55.014;73.156;2022-11-09T08:14:23;9.00;;;9.00;;
63379;SDS011;53160;55.014;73.156;2022-11-09T08:16:49;8.25;;;8.00;;
63379;SDS011;53160;55.014;73.156;2022-11-09T08:19:15;12.25;;;11.50;;
63379;SDS011;53160;55.014;73.156;2022-11-09T08:21:41;11.00;;;10.50;;
63379;SDS011;53160;55.014;73.156;2022-11-09T08:24:12;9.00;;;8.00;;
63379;SDS011;53160;55.014;73.156;2022-11-09T08:26:38;11.00;;;10.75;;
63379;SDS011;53160;55.014;73.156;2022-11-09T08:29:04;12.75;;;11.25;;
63379;SDS011;53160;55.014;73.156;2022-11-09T08:31:35;10.00;;;10.00;;
63379;SDS011;53160;55.014;73.156;2022-11-09T08:34:11;12.00;;;11.80;;
63379;SDS011;53160;55.014;73.156;2022-11-09T08:36:39;11.00;;;8.67;;
63379;SDS011;53160;55.014;73.156;2022-11-09T08:39:05;8.25;;;8.00;;
63379;SDS011;53160;55.014;73.156;2022-11-09T08:41:31;10.50;;;8.75;;
63379;SDS011;53160;55.014;73.156;2022-11-09T08:43:58;11.00;;;10.20;;
63379;SDS011;53160;55.014;73.156;2022-11-09T08:46:25;14.00;;;12.00;;
63379;SDS011;53160;55.014;73.156;2022-11-09T08:48:51;15.75;;;14.25;;
63379;SDS011;53160;55.014;73.156;2022-11-09T08:51:18;17.20;;;17.00;;
63379;SDS011;53160;55.014;73.156;2022-11-09T08:53:44;18.00;;;17.00;;
63379;SDS011;53160;55.014;73.156;2022-11-09T08:56:10;17.00;;;16.20;;
63379;SDS011;53160;55.014;73.156;2022-11-09T08:58:37;18.40;;;17.00;;
63379;SDS011;53160;55.014;73.156;2022-11-09T09:01:08;16.00;;;13.00;;
63379;SDS011;53160;55.014;73.156;2022-11-09T09:03:34;15.80;;;13.60;;
63379;SDS011;53160;55.014;73.156;2022-11-09T09:06:06;20.20;;;18.80;;
63379;SDS011;53160;55.014;73.156;2022-11-09T09:08:37;15.80;;;12.20;;
63379;SDS011;53160;55.014;73.156;2022-11-09T09:11:13;14.80;;;14.20;;
63379;SDS011;53160;55.014;73.156;2022-11-09T09:13:41;8.40;;;7.60;;
63379;SDS011;53160;55.014;73.156;2022-11-09T09:16:08;13.60;;;12.40;;
63379;SDS011;53160;55.014;73.156;2022-11-09T09:18:35;15.20;;;14.00;;
63379;SDS011;53160;55.014;73.156;2022-11-09T09:21:04;16.20;;;15.20;;
63379;SDS011;53160;55.014;73.156;2022-11-09T09:23:30;10.20;;;10.20;;
63379;SDS011;53160;55.014;73.156;2022-11-09T09:25:56;13.20;;;12.40;;
63379;SDS011;53160;55.014;73.156;2022-11-09T09:28:22;13.60;;;12.40;;
63379;SDS011;53160;55.014;73.156;2022-11-09T09:30:58;13.40;;;13.40;;
63379;SDS011;53160;55.014;73.156;2022-11-09T09:33:24;15.80;;;12.20;;
63379;SDS011;53160;55.014;73.156;2022-11-09T09:35:51;16.20;;;13.80;;
63379;SDS011;53160;55.014;73.156;2022-11-09T09:38:21;13.60;;;11.80;;
63379;SDS011;53160;55.014;73.156;2022-11-09T09:40:57;7.00;;;6.20;;
63379;SDS011;53160;55.014;73.156;2022-11-09T09:43:40;14.60;;;13.60;;
63379;SDS011;53160;55.014;73.156;2022-11-09T09:46:29;15.60;;;15.60;;
63379;SDS011;53160;55.014;73.156;2022-11-09T09:49:06;11.60;;;11.60;;
63379;SDS011;53160;55.014;73.156;2022-11-09T09:51:56;18.60;;;18.60;;
63379;SDS011;53160;55.014;73.156;2022-11-09T09:54:34;24.60;;;19.40;;
63379;SDS011;53160;55.014;73.156;2022-11-09T09:57:03;23.80;;;23.00;;
63379;SDS011;53160;55.014;73.156;2022-11-09T10:01:55;21.40;;;19.80;;
63379;SDS011;53160;55.014;73.156;2022-11-09T10:04:38;15.00;;;14.00;;
63379;SDS011;53160;55.014;73.156;2022-11-09T10:07:31;16.40;;;15.40;;
63379;SDS011;53160;55.014;73.156;2022-11-09T10:12:52;10.80;;;10.80;;
63379;SDS011;53160;55.014;73.156;2022-11-09T10:15:35;14.00;;;14.00;;
63379;SDS011;53160;55.014;73.156;2022-11-09T10:23:42;15.60;;;14.80;;
63379;SDS011;53160;55.014;73.156;2022-11-09T10:26:23;6.60;;;6.60;;
63379;SDS011;53160;55.014;73.156;2022-11-09T10:28:54;17.80;;;12.60;;
63379;SDS011;53160;55.014;73.156;2022-11-09T10:31:39;14.00;;;12.75;;
63379;SDS011;53160;55.014;73.156;2022-11-09T10:34:39;16.00;;;14.50;;
63379;SDS011;53160;55.014;73.156;2022-11-09T10:39:34;16.80;;;15.00;;
63379;SDS011;53160;55.014;73.156;2022-11-09T10:42:28;12.80;;;10.40;;
63379;SDS011;53160;55.014;73.156;2022-11-09T10:45:35;14.80;;;14.40;;
63379;SDS011;53160;55.014;73.156;2022-11-09T10:48:24;10.40;;;9.20;;
63379;SDS011;53160;55.014;73.156;2022-11-09T10:51:31;17.80;;;15.80;;
63379;SDS011;53160;55.014;73.156;2022-11-09T10:57:17;24.00;;;22.20;;
63379;SDS011;53160;55.014;73.156;2022-11-09T11:00:16;23.00;;;19.60;;
63379;SDS011;53160;55.014;73.156;2022-11-09T11:03:16;15.40;;;15.40;;
63379;SDS011;53160;55.014;73.156;2022-11-09T11:12:11;20.40;;;19.40;;
63379;SDS011;53160;55.014;73.156;2022-11-09T11:14:56;24.80;;;23.40;;
63379;SDS011;53160;55.014;73.156;2022-11-09T11:17:42;17.60;;;17.00;;
63379;SDS011;53160;55.014;73.156;2022-11-09T11:23:15;22.80;;;20.60;;
63379;SDS011;53160;55.014;73.156;2022-11-09T11:26:14;21.80;;;20.80;;
63379;SDS011;53160;55.014;73.156;2022-11-09T11:29:13;18.60;;;17.80;;
63379;SDS011;53160;55.014;73.156;2022-11-09T11:32:01;16.60;;;16.60;;
63379;SDS011;53160;55.014;73.156;2022-11-09T11:34:55;9.80;;;9.20;;
63379;SDS011;53160;55.014;73.156;2022-11-09T11:37:55;18.60;;;17.80;;
63379;SDS011;53160;55.014;73.156;2022-11-09T11:46:59;22.00;;;18.20;;
63379;SDS011;53160;55.014;73.156;2022-11-09T11:52:39;23.40;;;19.00;;
63379;SDS011;53160;55.014;73.156;2022-11-09T12:01:48;7.00;;;5.80;;
63379;SDS011;53160;55.014;73.156;2022-11-09T12:10:29;17.80;;;16.00;;
63379;SDS011;53160;55.014;73.156;2022-11-09T12:13:58;18.00;;;17.80;;
63379;SDS011;53160;55.014;73.156;2022-11-09T12:16:38;20.00;;;18.80;;
63379;SDS011;53160;55.014;73.156;2022-11-09T12:19:35;22.60;;;19.40;;
63379;SDS011;53160;55.014;73.156;2022-11-09T12:22:45;23.80;;;23.00;;
63379;SDS011;53160;55.014;73.156;2022-11-09T12:25:42;22.20;;;21.80;;
63379;SDS011;53160;55.014;73.156;2022-11-09T12:31:47;24.00;;;20.40;;
63379;SDS011;53160;55.014;73.156;2022-11-09T12:34:31;30.20;;;25.80;;
63379;SDS011;53160;55.014;73.156;2022-11-09T12:37:36;31.80;;;28.20;;
63379;SDS011;53160;55.014;73.156;2022-11-09T12:40:36;24.80;;;23.00;;
63379;SDS011;53160;55.014;73.156;2022-11-09T12:43:30;26.60;;;25.00;;
63379;SDS011;53160;55.014;73.156;2022-11-09T12:46:15;27.20;;;26.60;;
63379;SDS011;53160;55.014;73.156;2022-11-09T12:49:11;26.00;;;23.60;;
63379;SDS011;53160;55.014;73.156;2022-11-09T12:52:07;26.80;;;24.40;;
63379;SDS011;53160;55.014;73.156;2022-11-09T12:54:54;28.40;;;26.80;;
63379;SDS011;53160;55.014;73.156;2022-11-09T12:57:43;31.40;;;28.00;;
63379;SDS011;53160;55.014;73.156;2022-11-09T13:03:21;24.20;;;23.80;;
63379;SDS011;53160;55.014;73.156;2022-11-09T13:06:26;24.20;;;22.00;;
63379;SDS011;53160;55.014;73.156;2022-11-09T13:35:56;23.20;;;21.60;;
63379;SDS011;53160;55.014;73.156;2022-11-09T13:42:01;21.80;;;20.00;;
63379;SDS011;53160;55.014;73.156;2022-11-09T13:44:45;22.00;;;20.60;;
63379;SDS011;53160;55.014;73.156;2022-11-09T13:47:32;18.60;;;18.00;;
63379;SDS011;53160;55.014;73.156;2022-11-09T13:50:23;22.60;;;21.20;;
63379;SDS011;53160;55.014;73.156;2022-11-09T13:59:33;19.80;;;18.60;;
63379;SDS011;53160;55.014;73.156;2022-11-09T14:02:23;22.20;;;21.40;;
63379;SDS011;53160;55.014;73.156;2022-11-09T14:05:30;21.20;;;20.00;;
63379;SDS011;53160;55.014;73.156;2022-11-09T14:08:28;18.20;;;18.20;;
63379;SDS011;53160;55.014;73.156;2022-11-09T14:17:14;28.40;;;28.20;;
63379;SDS011;53160;55.014;73.156;2022-11-09T14:22:47;24.40;;;21.60;;
63379;SDS011;53160;55.014;73.156;2022-11-09T14:25:42;28.00;;;27.80;;
63379;SDS011;53160;55.014;73.156;2022-11-09T14:28:27;30.40;;;27.60;;
63379;SDS011;53160;55.014;73.156;2022-11-09T14:31:23;24.80;;;23.40;;
63379;SDS011;53160;55.014;73.156;2022-11-09T14:34:13;27.20;;;22.80;;
63379;SDS011;53160;55.014;73.156;2022-11-09T14:36:59;21.80;;;21.40;;
63379;SDS011;53160;55.014;73.156;2022-11-09T14:39:48;29.20;;;28.80;;
63379;SDS011;53160;55.014;73.156;2022-11-09T14:42:33;25.20;;;25.00;;
63379;SDS011;53160;55.014;73.156;2022-11-09T14:45:28;30.60;;;28.80;;
63379;SDS011;53160;55.014;73.156;2022-11-09T14:48:15;26.60;;;24.80;;
63379;SDS011;53160;55.014;73.156;2022-11-09T14:51:00;30.40;;;27.80;;
63379;SDS011;53160;55.014;73.156;2022-11-09T14:53:56;22.40;;;22.00;;
63379;SDS011;53160;55.014;73.156;2022-11-09T14:56:41;23.00;;;21.00;;
63379;SDS011;53160;55.014;73.156;2022-11-09T14:59:29;22.00;;;21.60;;
63379;SDS011;53160;55.014;73.156;2022-11-09T15:02:15;22.20;;;20.20;;
63379;SDS011;53160;55.014;73.156;2022-11-09T15:05:02;25.20;;;21.80;;
63379;SDS011;53160;55.014;73.156;2022-11-09T15:07:46;28.00;;;26.00;;
63379;SDS011;53160;55.014;73.156;2022-11-09T15:10:36;22.60;;;21.20;;
63379;SDS011;53160;55.014;73.156;2022-11-09T15:13:29;35.20;;;31.20;;
63379;SDS011;53160;55.014;73.156;2022-11-09T15:16:28;25.20;;;24.20;;
63379;SDS011;53160;55.014;73.156;2022-11-09T15:19:28;18.60;;;18.60;;
63379;SDS011;53160;55.014;73.156;2022-11-09T15:25:23;22.40;;;21.20;;
63379;SDS011;53160;55.014;73.156;2022-11-09T15:33:46;22.80;;;22.00;;
63379;SDS011;53160;55.014;73.156;2022-11-09T15:36:33;19.60;;;19.60;;
63379;SDS011;53160;55.014;73.156;2022-11-09T15:39:19;28.80;;;25.00;;
63379;SDS011;53160;55.014;73.156;2022-11-09T15:42:04;24.60;;;23.80;;
63379;SDS011;53160;55.014;73.156;2022-11-09T15:44:56;23.20;;;21.20;;
63379;SDS011;53160;55.014;73.156;2022-11-09T15:47:47;17.40;;;17.20;;
63379;SDS011;53160;55.014;73.156;2022-11-09T15:50:42;23.60;;;22.00;;
63379;SDS011;53160;55.014;73.156;2022-11-09T15:53:37;27.20;;;24.80;;
63379;SDS011;53160;55.014;73.156;2022-11-09T15:56:22;26.00;;;20.60;;
63379;SDS011;53160;55.014;73.156;2022-11-09T15:59:19;20.80;;;20.00;;
63379;SDS011;53160;55.014;73.156;2022-11-09T16:02:09;21.60;;;20.00;;
63379;SDS011;53160;55.014;73.156;2022-11-09T16:04:55;19.80;;;18.40;;
63379;SDS011;53160;55.014;73.156;2022-11-09T16:07:49;21.00;;;21.00;;
63379;SDS011;53160;55.014;73.156;2022-11-09T16:10:41;21.20;;;20.40;;
63379;SDS011;53160;55.014;73.156;2022-11-09T16:13:27;25.40;;;22.60;;
63379;SDS011;53160;55.014;73.156;2022-11-09T16:16:21;21.60;;;20.20;;
63379;SDS011;53160;55.014;73.156;2022-11-09T16:19:06;20.00;;;19.40;;
63379;SDS011;53160;55.014;73.156;2022-11-09T16:22:00;19.60;;;18.60;;
63379;SDS011;53160;55.014;73.156;2022-11-09T16:24:51;13.20;;;12.60;;
63379;SDS011;53160;55.014;73.156;2022-11-09T16:27:36;20.20;;;19.40;;
63379;SDS011;53160;55.014;73.156;2022-11-09T16:30:21;23.00;;;21.60;;
63379;SDS011;53160;55.014;73.156;2022-11-09T16:33:12;18.60;;;18.60;;
63379;SDS011;53160;55.014;73.156;2022-11-09T16:35:58;18.60;;;18.40;;
63379;SDS011;53160;55.014;73.156;2022-11-09T16:38:53;13.80;;;11.40;;
63379;SDS011;53160;55.014;73.156;2022-11-09T16:41:44;22.40;;;21.20;;
63379;SDS011;53160;55.014;73.156;2022-11-09T16:44:30;16.40;;;16.40;;
63379;SDS011;53160;55.014;73.156;2022-11-09T16:47:17;16.60;;;14.40;;
63379;SDS011;53160;55.014;73.156;2022-11-09T16:50:02;23.20;;;20.20;;
63379;SDS011;53160;55.014;73.156;2022-11-09T16:52:47;25.00;;;22.80;;
63379;SDS011;53160;55.014;73.156;2022-11-09T16:55:32;24.40;;;23.20;;
63379;SDS011;53160;55.014;73.156;2022-11-09T16:58:28;23.80;;;23.20;;